Time;durP1;ratioP1;P1;durP2;ratioP2;P2;SDS_P1;SDS_P2;PMS_P1;PMS_P2;Temp;Humidity;BMP_temperature;BMP_pressure;BME280_temperature;BME280_humidity;BME280_pressure;Samples;Min_cycle;Max_cycle;Signal;HPM_P1;HPM_P2
2021/11/27 00:01:24;;;;;;;3.72;1.67;;;;;;;7.55;85.45;93635.09;5086375;28;20071;-71
2021/11/27 00:03:54;;;;;;;15.27;6.72;;;;;;;7.51;86.22;93657.28;5069257;28;20562;-71
2021/11/27 00:06:23;;;;;;;13.25;6.45;;;;;;;7.38;87.34;93645.47;5086356;28;20067;-71
2021/11/27 00:08:50;;;;;;;10.18;4.68;;;;;;;7.29;88.28;93652.88;5091714;28;20036;-71
2021/11/27 00:11:17;;;;;;;12.82;6.38;;;;;;;7.23;88.71;93653.84;5094645;28;20046;-71
2021/11/27 00:13:45;;;;;;;5.22;2.97;;;;;;;6.75;90.88;93655.19;5071571;28;20056;-71
2021/11/27 00:16:12;;;;;;;3.20;2.33;;;;;;;6.55;92.55;93664.22;5071403;28;20501;-71
2021/11/27 00:18:39;;;;;;;2.88;1.85;;;;;;;6.39;92.99;93675.31;5068452;28;20040;-71
2021/11/27 00:21:10;;;;;;;2.65;1.48;;;;;;;6.35;93.26;93679.41;5087379;28;20609;-71
2021/11/27 00:23:38;;;;;;;2.70;1.48;;;;;;;6.63;93.90;93666.41;5071744;28;20509;-71
2021/11/27 00:26:08;;;;;;;4.55;2.30;;;;;;;6.67;93.58;93651.22;5087075;28;20054;-71
2021/11/27 00:28:36;;;;;;;5.18;2.35;;;;;;;6.76;93.36;93659.38;5068225;28;20043;-71
2021/11/27 00:31:08;;;;;;;4.25;2.75;;;;;;;6.67;92.88;93662.34;5070351;28;20040;-71
2021/11/27 00:33:38;;;;;;;2.92;1.40;;;;;;;6.62;94.31;93649.31;5085248;28;20115;-71
2021/11/27 00:36:05;;;;;;;2.08;1.00;;;;;;;6.68;94.21;93648.41;5091348;28;20050;-71
2021/11/27 00:38:33;;;;;;;3.42;1.95;;;;;;;6.70;93.99;93651.53;5090039;28;20036;-71
2021/11/27 00:41:01;;;;;;;2.72;1.83;;;;;;;6.83;93.45;93654.81;5086939;28;20162;-70
2021/11/27 00:43:28;;;;;;;4.25;2.40;;;;;;;6.83;93.04;93660.00;5064130;28;20043;-71
2021/11/27 00:45:56;;;;;;;3.63;1.48;;;;;;;6.90;92.65;93660.63;5072864;28;20048;-71
2021/11/27 00:48:25;;;;;;;6.10;2.20;;;;;;;7.00;92.01;93650.41;5049681;28;20044;-70
2021/11/27 00:51:04;;;;;;;3.45;2.28;;;;;;;6.77;92.78;93635.03;5088857;28;20063;-71
2021/11/27 00:53:33;;;;;;;4.03;2.15;;;;;;;6.83;92.87;93654.81;5092002;28;20150;-71
2021/11/27 00:56:00;;;;;;;14.70;5.88;;;;;;;6.89;92.60;93653.88;5093767;28;20576;-71
2021/11/27 00:58:28;;;;;;;7.55;3.40;;;;;;;6.83;91.97;93639.28;5090755;28;20040;-70
2021/11/27 01:01:06;;;;;;;6.20;1.63;;;;;;;7.02;91.81;93650.97;5089744;28;20047;-71
2021/11/27 01:03:36;;;;;;;3.25;1.90;;;;;;;6.99;91.76;93656.63;5071470;28;20040;-71
2021/11/27 01:06:07;;;;;;;0.90;0.70;;;;;;;7.07;90.99;93655.41;5073303;28;20036;-71
2021/11/27 01:08:35;;;;;;;3.83;1.95;;;;;;;7.13;90.99;93664.03;5066474;28;20052;-71
2021/11/27 01:11:09;;;;;;;47.50;14.50;;;;;;;7.12;90.93;93646.94;5069235;28;20040;-71
2021/11/27 01:13:38;;;;;;;31.50;7.72;;;;;;;6.97;91.80;93635.38;5090356;28;20047;-71
2021/11/27 01:16:07;;;;;;;4.45;2.05;;;;;;;6.91;92.11;93625.94;5068004;28;20856;-70
2021/11/27 01:18:35;;;;;;;2.22;1.20;;;;;;;6.87;91.98;93661.09;5070994;28;20040;-71
2021/11/27 01:21:06;;;;;;;2.03;1.30;;;;;;;7.03;91.46;93681.00;5085313;28;20739;-71
2021/11/27 01:23:35;;;;;;;5.60;2.38;;;;;;;7.03;91.21;93688.78;5084369;28;20050;-71
2021/11/27 01:26:03;;;;;;;1.38;1.00;;;;;;;7.16;90.49;93679.13;5057748;28;20460;-71
2021/11/27 01:28:30;;;;;;;1.77;1.15;;;;;;;7.25;90.17;93682.88;5086648;28;20049;-71
2021/11/27 01:30:59;;;;;;;4.93;2.20;;;;;;;7.54;88.19;93688.69;5072548;28;20047;-71
2021/11/27 01:33:30;;;;;;;2.45;1.20;;;;;;;7.70;86.58;93674.13;5085668;28;20040;-71
2021/11/27 01:35:58;;;;;;;2.05;1.42;;;;;;;7.87;86.29;93673.28;5067237;28;20058;-71
2021/11/27 01:38:26;;;;;;;1.70;1.13;;;;;;;7.84;85.77;93680.50;5088564;28;20035;-70
2021/11/27 01:40:54;;;;;;;1.90;1.60;;;;;;;7.89;85.96;93681.63;5073693;28;20049;-72
2021/11/27 01:43:23;;;;;;;2.10;1.33;;;;;;;7.81;85.94;93670.66;5049402;28;20054;-71
2021/11/27 01:45:51;;;;;;;3.58;1.00;;;;;;;7.68;86.49;93676.16;5076246;28;20040;-71
2021/11/27 01:48:21;;;;;;;2.53;1.33;;;;;;;7.67;86.52;93679.81;5086559;28;20059;-71
2021/11/27 01:50:59;;;;;;;3.28;1.27;;;;;;;7.66;85.17;93653.09;5074778;28;20097;-71
2021/11/27 01:53:29;;;;;;;0.63;0.50;;;;;;;8.86;79.64;93658.41;5082289;28;20043;-71
2021/11/27 01:56:00;;;;;;;1.48;1.25;;;;;;;9.57;75.95;93652.88;5069819;28;20046;-70
2021/11/27 01:58:28;;;;;;;1.15;0.75;;;;;;;9.98;74.53;93673.09;5072452;28;20044;-71
2021/11/27 02:01:04;;;;;;;1.10;0.73;;;;;;;10.23;73.22;93667.19;5072703;28;20051;-71
2021/11/27 02:03:33;;;;;;;0.90;0.60;;;;;;;10.54;69.55;93659.44;5089614;28;20039;-71
2021/11/27 02:06:11;;;;;;;0.73;0.38;;;;;;;10.86;67.83;93654.78;5070855;28;20048;-71
2021/11/27 02:08:40;;;;;;;0.47;0.32;;;;;;;11.05;64.74;93644.59;5073644;28;20093;-71
2021/11/27 02:11:11;;;;;;;0.28;0.22;;;;;;;11.46;62.34;93659.41;5055701;28;20100;-71
2021/11/27 02:13:40;;;;;;;0.98;0.47;;;;;;;11.64;61.71;93681.50;5073249;28;20067;-71
2021/11/27 02:16:09;;;;;;;0.63;0.30;;;;;;;11.77;60.88;93695.81;5073969;28;20437;-70
2021/11/27 02:18:37;;;;;;;0.40;0.20;;;;;;;11.99;57.65;93662.38;5085815;28;20036;-71
2021/11/27 02:21:11;;;;;;;0.65;0.40;;;;;;;12.05;57.38;93684.78;5091010;28;20437;-71
2021/11/27 02:23:38;;;;;;;0.70;0.63;;;;;;;12.12;57.28;93675.88;5108867;27;20075;-71
2021/11/27 02:26:08;;;;;;;0.77;0.45;;;;;;;12.04;58.63;93680.59;5087999;28;20097;-71
2021/11/27 02:28:44;;;;;;;1.15;0.50;;;;;;;11.93;59.36;93678.31;5078017;28;20412;-71
2021/11/27 02:31:11;;;;;;;0.73;0.47;;;;;;;11.90;59.26;93674.41;5071452;28;20056;-71
2021/11/27 02:33:39;;;;;;;1.48;0.80;;;;;;;11.60;58.67;93644.75;5069222;28;20048;-71
2021/11/27 02:36:06;;;;;;;0.30;0.22;;;;;;;11.88;57.13;93676.47;5069371;28;20058;-71
2021/11/27 02:38:33;;;;;;;0.63;0.32;;;;;;;12.10;56.28;93704.09;5073443;28;20044;-70
2021/11/27 02:41:01;;;;;;;0.88;0.40;;;;;;;12.11;56.60;93663.91;5072452;28;20052;-70
2021/11/27 02:43:28;;;;;;;0.68;0.40;;;;;;;12.09;57.05;93645.13;5075323;28;20504;-70
2021/11/27 02:45:56;;;;;;;0.63;0.30;;;;;;;12.00;56.60;93643.06;5087908;28;20050;-71
2021/11/27 02:48:23;;;;;;;1.30;0.50;;;;;;;12.02;57.40;93640.97;5087357;28;20447;-71
2021/11/27 02:50:50;;;;;;;0.70;0.50;;;;;;;12.03;57.03;93694.72;5073925;28;20155;-70
2021/11/27 02:53:17;;;;;;;0.65;0.30;;;;;;;12.17;56.00;93694.13;5090239;28;20590;-70
2021/11/27 02:55:44;;;;;;;0.50;0.30;;;;;;;12.32;55.40;93675.78;5073818;28;20517;-70
2021/11/27 02:58:12;;;;;;;3.03;0.45;;;;;;;12.19;56.22;93624.16;5055341;28;20052;-70
2021/11/27 03:00:42;;;;;;;0.47;0.30;;;;;;;12.07;57.15;93636.78;5072711;28;20087;-70
2021/11/27 03:03:09;;;;;;;0.82;0.63;;;;;;;12.17;57.52;93652.38;5090092;28;20121;-70
2021/11/27 03:05:38;;;;;;;0.50;0.40;;;;;;;11.97;57.26;93645.41;5071488;28;20047;-70
2021/11/27 03:08:05;;;;;;;0.95;0.50;;;;;;;12.18;54.12;93656.56;5089979;28;20031;-70
2021/11/27 03:10:32;;;;;;;0.60;0.30;;;;;;;12.28;54.03;93627.78;5086722;28;20043;-70
2021/11/27 03:12:59;;;;;;;0.50;0.28;;;;;;;12.41;53.27;93600.28;5089464;28;20044;-71
2021/11/27 03:15:26;;;;;;;0.93;0.55;;;;;;;12.38;54.25;93580.72;5091949;28;20056;-70
2021/11/27 03:17:54;;;;;;;1.05;0.47;;;;;;;12.28;54.91;93575.59;5069441;28;20040;-71
2021/11/27 03:20:21;;;;;;;0.65;0.25;;;;;;;12.28;54.70;93591.25;5051662;28;20048;-71
2021/11/27 03:22:49;;;;;;;0.68;0.30;;;;;;;12.11;55.76;93580.38;5068259;28;20044;-71
2021/11/27 03:25:16;;;;;;;0.60;0.40;;;;;;;12.12;55.14;93571.47;5086629;28;20040;-70
2021/11/27 03:27:45;;;;;;;2.17;0.80;;;;;;;11.98;55.65;93559.06;5071392;28;20055;-70
2021/11/27 03:30:16;;;;;;;1.25;0.70;;;;;;;11.92;56.43;93578.41;5074276;28;20052;-71
2021/11/27 03:32:49;;;;;;;1.08;0.45;;;;;;;11.98;56.55;93623.50;5071022;28;20421;-71
2021/11/27 03:35:19;;;;;;;0.70;0.40;;;;;;;11.91;56.91;93618.56;5070640;28;20476;-71
2021/11/27 03:37:48;;;;;;;0.20;0.15;;;;;;;12.41;49.64;93621.94;5069371;28;20082;-71
2021/11/27 03:40:21;;;;;;;0.45;0.35;;;;;;;12.84;49.32;93576.16;5071122;28;20044;-71
2021/11/27 03:42:51;;;;;;;0.70;0.50;;;;;;;12.76;51.53;93595.84;5066767;28;20113;-70
2021/11/27 03:45:21;;;;;;;0.40;0.30;;;;;;;12.60;53.98;93642.19;5088467;28;20039;-70
2021/11/27 03:48:14;;;;;;;0.90;0.70;;;;;;;12.40;55.78;93578.59;5072838;28;22049;-70
2021/11/27 03:51:02;;;;;;;0.43;0.22;;;;;;;12.02;56.49;93620.06;5085265;28;20176;-70
2021/11/27 03:53:37;;;;;;;0.30;0.25;;;;;;;11.84;56.67;93633.72;5070850;28;20083;-70
2021/11/27 03:56:11;;;;;;;0.88;0.40;;;;;;;11.92;54.35;93604.50;5087357;28;20043;-70
2021/11/27 03:58:39;;;;;;;1.38;0.85;;;;;;;12.19;53.90;93651.06;5075942;28;20062;-70
2021/11/27 04:01:09;;;;;;;1.85;0.57;;;;;;;12.04;55.96;93662.34;5068903;28;20120;-70
2021/11/27 04:03:40;;;;;;;0.30;0.20;;;;;;;12.06;52.66;93643.81;5071093;28;20059;-71
2021/11/27 04:06:09;;;;;;;3.30;0.47;;;;;;;12.41;51.64;93663.72;5069038;28;20527;-71
2021/11/27 04:08:37;;;;;;;0.80;0.38;;;;;;;12.48;51.28;93662.63;5072317;28;20048;-71
2021/11/27 04:11:04;;;;;;;0.38;0.30;;;;;;;12.40;53.70;93683.03;5072291;28;20091;-71
2021/11/27 04:13:33;;;;;;;0.98;0.40;;;;;;;12.32;54.45;93670.56;5070616;28;20496;-71
2021/11/27 04:16:01;;;;;;;7.95;0.35;;;;;;;12.24;54.36;93705.06;5083920;28;20048;-71
2021/11/27 04:18:28;;;;;;;1.73;0.30;;;;;;;12.21;55.41;93684.72;5072428;28;20116;-72
2021/11/27 04:20:55;;;;;;;1.45;0.50;;;;;;;12.03;56.43;93683.50;5084304;28;20093;-71
2021/11/27 04:23:22;;;;;;;0.35;0.20;;;;;;;12.09;54.54;93699.91;5066378;28;20044;-71
2021/11/27 04:25:52;;;;;;;2.25;0.38;;;;;;;12.19;54.25;93713.72;5086940;28;20098;-71
2021/11/27 04:28:20;;;;;;;0.55;0.40;;;;;;;12.18;55.69;93727.03;5073939;28;20127;-71
2021/11/27 04:30:47;;;;;;;1.17;0.45;;;;;;;12.20;56.17;93728.31;5069625;28;20044;-71
2021/11/27 04:33:16;;;;;;;0.93;0.28;;;;;;;12.20;55.24;93709.25;5071969;28;20136;-71
2021/11/27 04:35:50;;;;;;;1.52;0.70;;;;;;;12.24;56.27;93720.72;5066590;28;20079;-70
2021/11/27 04:38:23;;;;;;;0.82;0.38;;;;;;;12.17;56.16;93735.91;5102770;27;20489;-70
2021/11/27 04:40:52;;;;;;;15.32;7.95;;;;;;;12.14;56.22;93720.78;5073169;28;20523;-72
2021/11/27 04:43:20;;;;;;;2.40;0.93;;;;;;;12.10;57.09;93730.97;5069012;28;20130;-71
2021/11/27 04:45:47;;;;;;;2.65;2.08;;;;;;;12.15;56.73;93733.53;5093111;28;20635;-71
2021/11/27 04:48:15;;;;;;;24.73;11.30;;;;;;;12.03;56.43;93709.59;5071410;28;20040;-71
2021/11/27 04:50:45;;;;;;;65.30;24.77;;;;;;;12.08;57.03;93722.59;5071246;28;20066;-71
2021/11/27 04:53:14;;;;;;;16.55;8.65;;;;;;;11.92;57.06;93708.84;5072886;28;20545;-71
2021/11/27 04:55:43;;;;;;;28.08;14.57;;;;;;;11.94;57.93;93727.63;5070714;28;20067;-71
2021/11/27 04:58:14;;;;;;;8.07;5.00;;;;;;;11.81;58.52;93722.94;5068140;28;20536;-71
2021/11/27 05:00:48;;;;;;;3.55;2.05;;;;;;;11.80;58.85;93742.25;5069519;28;20656;-71
2021/11/27 05:03:27;;;;;;;5.95;2.35;;;;;;;11.67;59.40;93760.00;5073878;28;20537;-71
2021/11/27 05:05:54;;;;;;;3.17;1.83;;;;;;;11.72;59.09;93766.25;5070479;28;20066;-71
2021/11/27 05:08:22;;;;;;;1.65;0.98;;;;;;;11.72;58.86;93753.22;5069186;28;20036;-71
2021/11/27 05:10:49;;;;;;;2.35;1.58;;;;;;;11.73;59.36;93773.03;5062081;28;20422;-71
2021/11/27 05:13:18;;;;;;;1.02;0.70;;;;;;;11.80;58.88;93789.22;5075582;28;20040;-70
2021/11/27 05:15:45;;;;;;;0.50;0.30;;;;;;;11.87;58.21;93758.41;5064045;28;20110;-70
2021/11/27 05:18:15;;;;;;;8.07;3.63;;;;;;;11.80;58.33;93760.50;5084604;28;20175;-72
2021/11/27 05:21:00;;;;;;;27.85;9.38;;;;;;;11.87;58.53;93779.28;5072054;28;20055;-71
2021/11/27 05:23:28;;;;;;;6.60;2.72;;;;;;;11.85;58.70;93784.00;5067784;28;20098;-71
2021/11/27 05:26:00;;;;;;;92.85;21.20;;;;;;;11.78;59.02;93780.88;5066143;28;20049;-71
2021/11/27 05:28:46;;;;;;;4.85;2.30;;;;;;;11.66;59.17;93784.50;5069606;28;20066;-70
2021/11/27 05:31:39;;;;;;;23.48;7.43;;;;;;;11.65;58.83;93793.41;5052298;28;20072;-70
2021/11/27 05:36:40;;;;;;;2.05;1.40;;;;;;;11.89;57.54;93792.06;5062171;28;20053;-71
2021/11/27 05:39:07;;;;;;;1.77;0.80;;;;;;;11.97;57.47;93810.59;5064198;28;20116;-71
2021/11/27 05:41:34;;;;;;;3.92;1.73;;;;;;;12.05;57.54;93830.94;5069113;28;20047;-71
2021/11/27 05:44:01;;;;;;;3.42;1.42;;;;;;;11.97;57.64;93826.25;5070890;28;20079;-71
2021/11/27 05:46:29;;;;;;;1.92;0.98;;;;;;;12.01;57.79;93836.94;5067099;28;20125;-70
2021/11/27 05:48:56;;;;;;;1.33;0.60;;;;;;;12.03;57.50;93824.44;5065724;28;20053;-71
2021/11/27 05:51:52;;;;;;;3.80;1.67;;;;;;;12.03;57.86;93834.88;5066387;28;20078;-71
2021/11/27 05:54:19;;;;;;;3.63;1.95;;;;;;;12.05;57.66;93830.94;5071735;28;20048;-71
2021/11/27 05:56:45;;;;;;;4.53;3.22;;;;;;;12.03;58.11;93830.41;5074263;28;20089;-71
2021/11/27 05:59:13;;;;;;;3.20;1.88;;;;;;;12.08;58.06;93837.44;5078099;28;20040;-70
2021/11/27 06:01:40;;;;;;;4.78;2.22;;;;;;;12.09;57.69;93827.81;5067269;28;20052;-71
2021/11/27 06:04:07;;;;;;;11.00;4.93;;;;;;;12.18;57.41;93857.53;5068084;28;20064;-71
2021/11/27 06:06:33;;;;;;;1.50;0.80;;;;;;;12.01;57.68;93827.31;5073169;28;20044;-71
2021/11/27 06:09:00;;;;;;;3.88;2.53;;;;;;;12.07;58.42;93841.13;5064548;28;20036;-71
2021/11/27 06:11:27;;;;;;;6.47;3.17;;;;;;;12.07;58.38;93851.56;5072694;28;20041;-71
2021/11/27 06:13:55;;;;;;;8.85;4.57;;;;;;;12.15;58.35;93855.44;5074410;28;20044;-71
2021/11/27 06:16:22;;;;;;;5.13;3.63;;;;;;;12.27;58.95;93866.41;5087054;28;20048;-71
2021/11/27 06:18:49;;;;;;;3.53;1.85;;;;;;;12.34;58.29;93881.78;5070436;28;20065;-70
2021/11/27 06:21:20;;;;;;;1.77;1.00;;;;;;;12.24;57.20;93866.91;5095454;28;20043;-71
2021/11/27 06:23:49;;;;;;;1.20;0.70;;;;;;;12.33;57.42;93875.78;5086993;28;20543;-70
2021/11/27 06:26:17;;;;;;;1.45;1.02;;;;;;;12.48;57.83;93876.78;5083729;28;20044;-70
2021/11/27 06:28:44;;;;;;;2.70;1.30;;;;;;;12.54;57.26;93891.41;5087863;28;20051;-70
2021/11/27 06:31:11;;;;;;;0.55;0.40;;;;;;;12.51;56.63;93860.59;5085557;28;20127;-70
2021/11/27 06:33:38;;;;;;;1.15;0.73;;;;;;;12.46;57.17;93863.22;5086265;28;20833;-70
2021/11/27 06:36:05;;;;;;;1.42;0.63;;;;;;;12.62;57.23;93880.41;5073396;28;20135;-70
2021/11/27 06:38:33;;;;;;;1.60;0.90;;;;;;;12.59;57.31;93883.56;5094700;28;20481;-70
2021/11/27 06:41:00;;;;;;;1.13;0.57;;;;;;;12.60;56.63;93891.13;5089281;28;20053;-70
2021/11/27 06:43:38;;;;;;;1.15;0.63;;;;;;;12.65;56.98;93913.81;5083384;28;20036;-70
2021/11/27 06:46:15;;;;;;;0.55;0.30;;;;;;;12.55;55.96;93892.94;5070937;28;20047;-70
2021/11/27 06:48:43;;;;;;;2.58;1.17;;;;;;;12.67;56.20;93893.44;5088480;28;20060;-70
2021/11/27 06:51:13;;;;;;;1.67;1.00;;;;;;;12.76;56.00;93894.44;5065366;28;20406;-69
2021/11/27 06:53:40;;;;;;;3.53;0.90;;;;;;;12.78;56.33;93892.38;5092889;28;20501;-70
2021/11/27 06:56:07;;;;;;;0.95;0.82;;;;;;;12.79;56.09;93899.16;5088112;28;20042;-70
2021/11/27 06:58:35;;;;;;;1.45;0.70;;;;;;;12.81;55.77;93911.94;5089187;28;20477;-70
2021/11/27 07:01:28;;;;;;;2.55;1.20;;;;;;;12.68;55.89;93923.75;5079984;28;20126;-69
2021/11/27 07:04:08;;;;;;;3.85;2.05;;;;;;;12.68;55.96;93902.09;5084635;28;20048;-69
2021/11/27 07:06:41;;;;;;;1.48;0.73;;;;;;;12.62;55.91;93899.47;5085474;28;20051;-70
2021/11/27 07:09:09;;;;;;;2.53;1.08;;;;;;;12.53;55.14;93893.25;5065437;28;20066;-70
2021/11/27 07:11:57;;;;;;;2.75;1.25;;;;;;;12.69;55.63;93914.06;5071683;28;20583;-69
2021/11/27 07:14:24;;;;;;;3.45;2.33;;;;;;;12.68;55.63;93900.25;5074028;28;20150;-69
2021/11/27 07:16:51;;;;;;;2.67;1.52;;;;;;;12.78;55.48;93908.06;5083297;28;20055;-70
2021/11/27 07:19:17;;;;;;;2.60;1.95;;;;;;;12.80;55.24;93913.78;5085583;28;20058;-69
2021/11/27 07:21:45;;;;;;;6.13;3.25;;;;;;;12.82;55.43;93911.69;5084310;28;20047;-70
2021/11/27 07:24:11;;;;;;;4.05;2.38;;;;;;;12.80;55.61;93920.81;5084249;28;20059;-70
2021/11/27 07:26:38;;;;;;;4.63;2.13;;;;;;;12.86;55.45;93924.22;5088556;28;20458;-70
2021/11/27 07:29:09;;;;;;;3.40;2.03;;;;;;;12.78;55.36;93913.28;5091207;28;20195;-70
2021/11/27 07:31:45;;;;;;;1.80;1.00;;;;;;;12.94;54.99;93915.81;5067039;28;20524;-70
2021/11/27 07:34:12;;;;;;;4.57;1.95;;;;;;;12.98;54.30;93914.22;5085043;28;20122;-69
2021/11/27 07:36:40;;;;;;;9.27;3.75;;;;;;;13.10;54.79;93927.00;5083194;28;20043;-70
2021/11/27 07:39:10;;;;;;;7.25;3.92;;;;;;;13.07;54.58;93907.41;5082687;28;20051;-70
2021/11/27 07:41:37;;;;;;;9.45;4.22;;;;;;;13.16;53.88;93931.16;5087814;28;20477;-69
2021/11/27 07:44:13;;;;;;;7.47;2.97;;;;;;;13.19;53.35;93936.63;5070955;28;20120;-69
2021/11/27 07:47:12;;;;;;;8.90;4.55;;;;;;;13.33;52.66;93917.78;5039253;28;20052;-69
2021/11/27 07:50:09;;;;;;;5.43;2.67;;;;;;;13.38;52.08;93920.38;5011154;28;20045;-69
2021/11/27 07:53:11;;;;;;;3.97;1.85;;;;;;;13.43;51.26;93922.94;5078849;28;20059;-69
2021/11/27 07:55:38;;;;;;;0.80;0.50;;;;;;;13.60;51.07;93932.28;5083963;28;20251;-69
2021/11/27 07:58:05;;;;;;;1.15;0.77;;;;;;;13.55;51.02;93920.78;5085858;28;20135;-69
2021/11/27 08:00:33;;;;;;;6.95;3.03;;;;;;;13.57;50.41;93913.44;5065583;28;20032;-69
2021/11/27 08:03:00;;;;;;;52.78;20.48;;;;;;;13.56;50.34;93917.13;5085005;28;20051;-69
2021/11/27 08:05:27;;;;;;;17.10;6.30;;;;;;;13.69;50.27;93925.41;5089092;28;20501;-69
2021/11/27 08:07:53;;;;;;;8.32;3.80;;;;;;;13.66;50.47;93941.66;5082031;28;20123;-71
2021/11/27 08:10:20;;;;;;;2.13;1.33;;;;;;;13.78;50.62;93936.88;5086422;28;20044;-69
2021/11/27 08:12:53;;;;;;;4.60;1.65;;;;;;;13.90;50.17;93942.53;5088439;28;20044;-70
2021/11/27 08:15:20;;;;;;;3.15;2.00;;;;;;;13.94;49.70;93953.25;5073314;28;20452;-69
2021/11/27 08:17:47;;;;;;;5.78;2.72;;;;;;;13.94;49.92;93943.56;5070314;28;20043;-69
2021/11/27 08:20:14;;;;;;;72.80;26.17;;;;;;;13.89;50.71;93935.72;5087203;28;20458;-69
2021/11/27 08:22:42;;;;;;;24.80;3.90;;;;;;;14.01;50.01;93947.69;5085609;28;20036;-69
2021/11/27 08:25:10;;;;;;;1.92;0.75;;;;;;;14.01;49.58;93958.16;5090972;28;20062;-68
2021/11/27 08:27:37;;;;;;;4.72;2.08;;;;;;;13.93;50.02;93962.91;5074378;28;20032;-69
2021/11/27 08:30:07;;;;;;;5.80;1.27;;;;;;;13.92;50.10;93953.50;5083309;28;20535;-68
2021/11/27 08:32:34;;;;;;;1.92;1.15;;;;;;;13.75;50.23;93950.47;5082555;28;20584;-68
2021/11/27 08:35:03;;;;;;;2.70;1.42;;;;;;;13.76;50.14;93952.06;5082472;28;20048;-68
2021/11/27 08:37:31;;;;;;;4.32;2.17;;;;;;;13.76;50.83;93946.81;5082475;28;20557;-69
2021/11/27 08:39:59;;;;;;;2.30;1.08;;;;;;;13.79;50.77;93951.50;5082203;28;21629;-69
2021/11/27 08:42:27;;;;;;;7.43;3.00;;;;;;;13.74;51.57;93939.25;5083101;28;20120;-70
2021/11/27 08:44:54;;;;;;;6.47;2.35;;;;;;;13.72;51.41;93940.53;5085772;28;20131;-69
2021/11/27 08:47:21;;;;;;;1.65;0.80;;;;;;;13.67;51.19;93922.28;5088657;28;20046;-69
2021/11/27 08:49:49;;;;;;;7.55;3.33;;;;;;;13.67;51.30;93938.00;5087076;28;20159;-69
2021/11/27 08:52:16;;;;;;;1.95;1.23;;;;;;;13.68;51.62;93952.63;5086456;28;20035;-69
2021/11/27 08:54:43;;;;;;;4.45;2.67;;;;;;;13.60;51.90;93937.50;5091258;28;20054;-69
2021/11/27 08:57:10;;;;;;;5.00;2.95;;;;;;;13.61;52.07;93944.28;5084126;28;20062;-69
2021/11/27 08:59:38;;;;;;;1.95;1.63;;;;;;;13.70;51.56;93948.69;5083709;28;20549;-70
2021/11/27 09:02:05;;;;;;;1.95;0.90;;;;;;;13.70;51.26;93942.66;5088415;28;20044;-70
2021/11/27 09:04:33;;;;;;;2.67;1.90;;;;;;;13.68;51.53;93939.53;5069477;28;20075;-69
2021/11/27 09:07:02;;;;;;;4.47;1.52;;;;;;;13.74;51.24;93938.47;5087390;28;20062;-70
2021/11/27 09:09:30;;;;;;;1.63;1.10;;;;;;;13.68;50.01;93908.13;5085387;28;20842;-69
2021/11/27 09:11:58;;;;;;;4.15;2.35;;;;;;;13.83;50.90;93926.38;5084967;28;20040;-69
2021/11/27 09:14:25;;;;;;;4.25;2.40;;;;;;;13.83;50.70;93921.13;5085689;28;20036;-70
2021/11/27 09:16:53;;;;;;;13.20;8.27;;;;;;;13.84;50.78;93922.69;5083907;28;20056;-69
2021/11/27 09:19:21;;;;;;;11.32;7.75;;;;;;;13.91;51.05;93917.91;5081606;28;20476;-69
2021/11/27 09:21:50;;;;;;;5.40;1.88;;;;;;;13.87;48.89;93901.19;5083886;28;20122;-69
2021/11/27 09:24:19;;;;;;;5.15;1.70;;;;;;;14.05;48.95;93933.00;5084105;28;20044;-68
2021/11/27 09:26:46;;;;;;;10.88;3.08;;;;;;;14.06;48.44;93924.09;5089411;28;20059;-69
2021/11/27 09:29:14;;;;;;;51.65;14.90;;;;;;;14.21;47.98;93921.34;5087925;28;20412;-69
2021/11/27 09:31:41;;;;;;;52.47;16.95;;;;;;;14.29;47.77;93931.22;5085431;28;20540;-69
2021/11/27 09:34:11;;;;;;;21.92;7.25;;;;;;;14.26;48.01;93905.59;5082903;28;20059;-68
2021/11/27 09:36:39;;;;;;;11.52;5.05;;;;;;;14.32;49.36;93922.81;5086576;28;20501;-69
2021/11/27 09:39:11;;;;;;;18.25;7.18;;;;;;;14.45;48.53;93926.63;5085826;28;20096;-69
2021/11/27 09:41:41;;;;;;;6.35;3.42;;;;;;;14.36;48.46;93909.16;5082095;28;20063;-69
2021/11/27 09:44:10;;;;;;;9.55;5.00;;;;;;;14.42;48.21;93915.91;5087529;28;20034;-69
2021/11/27 09:46:41;;;;;;;9.30;4.28;;;;;;;14.44;47.91;93924.28;5082600;28;20052;-68
2021/11/27 09:49:14;;;;;;;9.40;4.32;;;;;;;14.44;48.32;93919.03;5083775;28;20043;-68
2021/11/27 09:51:41;;;;;;;3.67;2.33;;;;;;;14.47;48.36;93919.25;5062809;28;20059;-70
2021/11/27 09:54:12;;;;;;;2.53;1.30;;;;;;;14.52;48.05;93924.47;5086886;28;20115;-69
2021/11/27 09:56:39;;;;;;;8.60;4.38;;;;;;;14.42;48.71;93906.25;5081928;28;20128;-69
2021/11/27 09:59:06;;;;;;;2.25;1.42;;;;;;;14.51;48.63;93940.44;5085195;28;20105;-69
2021/11/27 10:01:36;;;;;;;1.52;1.10;;;;;;;14.42;48.91;93923.78;5083292;28;20080;-69
2021/11/27 10:04:06;;;;;;;1.40;1.05;;;;;;;14.32;48.13;93904.47;5085323;28;20040;-69
2021/11/27 10:06:37;;;;;;;3.00;2.30;;;;;;;14.38;47.93;93910.44;5084709;28;20091;-68
2021/11/27 10:09:35;;;;;;;3.13;1.80;;;;;;;14.43;48.58;93933.19;5086094;28;20043;-68
2021/11/27 10:12:07;;;;;;;2.00;1.15;;;;;;;14.49;47.56;93911.13;5078760;28;20052;-68
2021/11/27 10:14:39;;;;;;;2.42;1.52;;;;;;;14.54;47.96;93897.97;5101819;28;20048;-68
2021/11/27 10:17:13;;;;;;;2.55;1.45;;;;;;;14.63;47.98;93903.44;5082883;28;20490;-68
2021/11/27 10:19:40;;;;;;;2.03;1.33;;;;;;;14.62;47.64;93900.03;5087576;28;20059;-68
2021/11/27 10:22:09;;;;;;;2.10;1.13;;;;;;;14.64;47.78;93903.16;5090012;28;20060;-69
2021/11/27 10:24:37;;;;;;;5.43;2.80;;;;;;;14.48;47.41;93904.34;5087632;28;20665;-69
2021/11/27 10:27:18;;;;;;;8.23;3.28;;;;;;;14.68;47.01;93909.38;5068832;28;20039;-69
2021/11/27 10:30:05;;;;;;;2.38;1.15;;;;;;;14.68;47.00;93898.13;5085190;28;20047;-70
2021/11/27 10:32:38;;;;;;;2.22;0.93;;;;;;;14.71;46.34;93908.84;5086304;28;20060;-69
2021/11/27 10:35:16;;;;;;;1.85;1.40;;;;;;;14.70;45.42;93891.53;5086005;28;20039;-69
2021/11/27 10:37:48;;;;;;;1.48;0.90;;;;;;;14.82;45.85;93890.34;5085016;28;20063;-69
2021/11/27 10:40:24;;;;;;;2.55;1.27;;;;;;;14.86;45.28;93894.78;5088121;28;20036;-69
2021/11/27 10:42:52;;;;;;;2.63;1.00;;;;;;;14.92;44.50;93882.38;5099668;28;20123;-69
2021/11/27 10:45:19;;;;;;;2.38;1.67;;;;;;;14.97;45.03;93879.72;5070652;28;20035;-70
2021/11/27 10:47:48;;;;;;;2.67;1.10;;;;;;;14.94;44.47;93879.50;5092677;28;20416;-69
2021/11/27 10:50:19;;;;;;;2.28;1.10;;;;;;;15.07;45.12;93884.03;5088541;28;20040;-69
2021/11/27 10:52:48;;;;;;;3.13;2.00;;;;;;;14.98;45.11;93870.78;5086870;28;20044;-69
2021/11/27 10:55:26;;;;;;;6.35;2.60;;;;;;;14.97;45.72;93879.72;5094609;28;20071;-69
2021/11/27 10:58:00;;;;;;;2.85;1.63;;;;;;;14.97;45.53;93866.59;5088556;28;20157;-69
2021/11/27 11:00:37;;;;;;;7.13;2.75;;;;;;;15.12;45.85;93875.34;5096217;28;20555;-69
2021/11/27 11:03:23;;;;;;;3.40;2.17;;;;;;;15.29;44.55;93880.88;5089943;28;20061;-69
2021/11/27 11:05:50;;;;;;;4.63;2.65;;;;;;;15.32;44.27;93858.53;5097933;28;20112;-69
2021/11/27 11:08:30;;;;;;;6.40;1.20;;;;;;;15.41;43.87;93886.50;5094409;28;20062;-69
2021/11/27 11:10:57;;;;;;;2.55;1.17;;;;;;;15.39;44.03;93859.72;5086091;28;20062;-69
2021/11/27 11:13:32;;;;;;;2.33;1.23;;;;;;;15.49;43.91;93858.81;5073406;28;20289;-69
2021/11/27 11:16:09;;;;;;;3.42;1.88;;;;;;;15.44;44.24;93862.28;5086527;28;20062;-69
2021/11/27 11:18:36;;;;;;;2.42;1.73;;;;;;;15.30;45.06;93850.94;5093058;28;20468;-69
2021/11/27 11:21:06;;;;;;;2.80;0.85;;;;;;;15.26;44.68;93839.47;5089256;28;20406;-69
2021/11/27 11:23:35;;;;;;;0.93;0.63;;;;;;;15.05;44.28;93837.13;5097855;28;20707;-69
2021/11/27 11:26:11;;;;;;;2.03;1.17;;;;;;;14.97;45.24;93832.50;5074969;28;20152;-69
2021/11/27 11:28:43;;;;;;;0.80;0.43;;;;;;;14.93;44.40;93836.78;5086194;28;20044;-69
2021/11/27 11:31:15;;;;;;;1.70;0.80;;;;;;;14.84;45.33;93822.72;5068163;28;20171;-68
2021/11/27 11:33:46;;;;;;;1.35;0.82;;;;;;;14.83;46.53;93808.81;5087416;28;20454;-70
2021/11/27 11:36:16;;;;;;;1.55;1.05;;;;;;;14.89;45.96;93804.28;5093110;28;20431;-69
2021/11/27 11:38:47;;;;;;;1.85;1.02;;;;;;;15.03;44.41;93807.00;5101997;27;20047;-69
2021/11/27 11:41:16;;;;;;;2.35;0.93;;;;;;;15.00;45.21;93802.31;5095004;28;20042;-70
2021/11/27 11:43:44;;;;;;;6.55;2.63;;;;;;;15.09;45.51;93819.78;5075870;28;20075;-70
2021/11/27 11:46:12;;;;;;;3.25;1.88;;;;;;;15.01;45.30;93799.41;5073798;28;20036;-70
2021/11/27 11:48:46;;;;;;;9.27;4.40;;;;;;;15.13;45.87;93819.22;5084606;28;20055;-71
2021/11/27 11:51:23;;;;;;;;;;;;;;;15.37;44.68;93829.63;5086394;28;20043;-68